sensor_id;sensor_type;location;lat;lon;timestamp;P1;durP1;ratioP1;P2;durP2;ratioP2
12480;SDS011;6305;48.398;11.762;2023-05-29T00:00:01;12.38;;;6.18;;
12480;SDS011;6305;48.398;11.762;2023-05-29T00:02:35;7.20;;;4.70;;
12480;SDS011;6305;48.398;11.762;2023-05-29T00:05:04;8.65;;;5.10;;
12480;SDS011;6305;48.398;11.762;2023-05-29T00:07:31;9.52;;;5.43;;
12480;SDS011;6305;48.398;11.762;2023-05-29T00:09:58;10.77;;;5.25;;
12480;SDS011;6305;48.398;11.762;2023-05-29T00:12:25;9.23;;;5.20;;
12480;SDS011;6305;48.398;11.762;2023-05-29T00:14:52;9.57;;;5.38;;
12480;SDS011;6305;48.398;11.762;2023-05-29T00:17:19;9.40;;;5.05;;
12480;SDS011;6305;48.398;11.762;2023-05-29T00:19:46;8.70;;;5.28;;
12480;SDS011;6305;48.398;11.762;2023-05-29T00:22:15;11.00;;;5.47;;
12480;SDS011;6305;48.398;11.762;2023-05-29T00:24:42;9.20;;;5.43;;
12480;SDS011;6305;48.398;11.762;2023-05-29T00:27:08;8.30;;;5.25;;
12480;SDS011;6305;48.398;11.762;2023-05-29T00:29:36;8.25;;;4.90;;
12480;SDS011;6305;48.398;11.762;2023-05-29T00:32:05;8.32;;;5.32;;
12480;SDS011;6305;48.398;11.762;2023-05-29T00:34:32;11.75;;;5.05;;
12480;SDS011;6305;48.398;11.762;2023-05-29T00:36:59;7.15;;;4.70;;
12480;SDS011;6305;48.398;11.762;2023-05-29T00:39:28;9.30;;;5.63;;
12480;SDS011;6305;48.398;11.762;2023-05-29T00:41:55;8.85;;;5.50;;
12480;SDS011;6305;48.398;11.762;2023-05-29T00:44:23;10.98;;;5.40;;
12480;SDS011;6305;48.398;11.762;2023-05-29T00:46:51;9.75;;;5.45;;
12480;SDS011;6305;48.398;11.762;2023-05-29T00:49:19;7.90;;;4.78;;
12480;SDS011;6305;48.398;11.762;2023-05-29T00:51:48;8.18;;;4.78;;
12480;SDS011;6305;48.398;11.762;2023-05-29T00:54:20;7.47;;;5.32;;
12480;SDS011;6305;48.398;11.762;2023-05-29T00:56:51;9.70;;;5.28;;
12480;SDS011;6305;48.398;11.762;2023-05-29T00:59:18;7.25;;;4.90;;
12480;SDS011;6305;48.398;11.762;2023-05-29T01:01:48;9.63;;;5.57;;
12480;SDS011;6305;48.398;11.762;2023-05-29T01:04:16;9.80;;;4.97;;
12480;SDS011;6305;48.398;11.762;2023-05-29T01:06:43;8.48;;;5.20;;
12480;SDS011;6305;48.398;11.762;2023-05-29T01:09:11;9.57;;;5.45;;
12480;SDS011;6305;48.398;11.762;2023-05-29T01:11:41;9.93;;;5.20;;
12480;SDS011;6305;48.398;11.762;2023-05-29T01:14:19;11.70;;;5.32;;
12480;SDS011;6305;48.398;11.762;2023-05-29T01:16:58;9.95;;;5.55;;
12480;SDS011;6305;48.398;11.762;2023-05-29T01:19:37;10.65;;;5.07;;
12480;SDS011;6305;48.398;11.762;2023-05-29T01:22:23;10.43;;;5.10;;
12480;SDS011;6305;48.398;11.762;2023-05-29T01:25:03;12.95;;;5.90;;
12480;SDS011;6305;48.398;11.762;2023-05-29T01:27:39;8.98;;;5.20;;
12480;SDS011;6305;48.398;11.762;2023-05-29T01:30:08;9.15;;;4.85;;
12480;SDS011;6305;48.398;11.762;2023-05-29T01:32:38;11.02;;;5.50;;
12480;SDS011;6305;48.398;11.762;2023-05-29T01:35:06;8.57;;;5.38;;
12480;SDS011;6305;48.398;11.762;2023-05-29T01:37:33;8.82;;;5.38;;
12480;SDS011;6305;48.398;11.762;2023-05-29T01:40:00;8.23;;;4.95;;
12480;SDS011;6305;48.398;11.762;2023-05-29T01:42:29;7.82;;;5.00;;
12480;SDS011;6305;48.398;11.762;2023-05-29T01:44:58;7.38;;;5.30;;
12480;SDS011;6305;48.398;11.762;2023-05-29T01:47:26;9.60;;;5.18;;
12480;SDS011;6305;48.398;11.762;2023-05-29T01:49:53;9.85;;;5.60;;
12480;SDS011;6305;48.398;11.762;2023-05-29T01:52:22;11.15;;;5.32;;
12480;SDS011;6305;48.398;11.762;2023-05-29T01:54:49;9.07;;;5.30;;
12480;SDS011;6305;48.398;11.762;2023-05-29T01:57:15;9.52;;;5.22;;
12480;SDS011;6305;48.398;11.762;2023-05-29T01:59:43;9.07;;;5.10;;
12480;SDS011;6305;48.398;11.762;2023-05-29T02:02:12;9.32;;;5.35;;
12480;SDS011;6305;48.398;11.762;2023-05-29T02:04:39;11.43;;;5.35;;
12480;SDS011;6305;48.398;11.762;2023-05-29T02:07:06;10.32;;;5.45;;
12480;SDS011;6305;48.398;11.762;2023-05-29T02:09:34;8.32;;;5.28;;
12480;SDS011;6305;48.398;11.762;2023-05-29T02:12:01;9.15;;;5.38;;
12480;SDS011;6305;48.398;11.762;2023-05-29T02:14:28;13.05;;;5.70;;
12480;SDS011;6305;48.398;11.762;2023-05-29T02:16:57;9.40;;;5.20;;
12480;SDS011;6305;48.398;11.762;2023-05-29T02:19:25;9.02;;;5.15;;
12480;SDS011;6305;48.398;11.762;2023-05-29T02:21:52;7.68;;;5.20;;
12480;SDS011;6305;48.398;11.762;2023-05-29T02:24:20;9.98;;;5.15;;
12480;SDS011;6305;48.398;11.762;2023-05-29T02:26:48;10.73;;;5.43;;
12480;SDS011;6305;48.398;11.762;2023-05-29T02:29:15;10.70;;;5.85;;
12480;SDS011;6305;48.398;11.762;2023-05-29T02:31:42;12.35;;;5.88;;
12480;SDS011;6305;48.398;11.762;2023-05-29T02:34:09;9.25;;;5.43;;
12480;SDS011;6305;48.398;11.762;2023-05-29T02:36:37;11.25;;;5.45;;
12480;SDS011;6305;48.398;11.762;2023-05-29T02:39:05;12.15;;;5.78;;
12480;SDS011;6305;48.398;11.762;2023-05-29T02:41:32;9.23;;;5.47;;
12480;SDS011;6305;48.398;11.762;2023-05-29T02:43:59;10.70;;;5.90;;
12480;SDS011;6305;48.398;11.762;2023-05-29T02:46:26;11.25;;;5.90;;
12480;SDS011;6305;48.398;11.762;2023-05-29T02:48:52;8.48;;;5.30;;
12480;SDS011;6305;48.398;11.762;2023-05-29T02:51:20;11.27;;;5.55;;
12480;SDS011;6305;48.398;11.762;2023-05-29T02:53:48;11.18;;;5.93;;
12480;SDS011;6305;48.398;11.762;2023-05-29T02:56:15;11.88;;;5.70;;
12480;SDS011;6305;48.398;11.762;2023-05-29T02:58:42;9.57;;;5.63;;
12480;SDS011;6305;48.398;11.762;2023-05-29T03:01:10;9.55;;;5.60;;
12480;SDS011;6305;48.398;11.762;2023-05-29T03:03:37;8.57;;;5.55;;
12480;SDS011;6305;48.398;11.762;2023-05-29T03:06:05;9.63;;;5.93;;
12480;SDS011;6305;48.398;11.762;2023-05-29T03:08:34;10.77;;;5.45;;
12480;SDS011;6305;48.398;11.762;2023-05-29T03:11:07;10.02;;;5.72;;
12480;SDS011;6305;48.398;11.762;2023-05-29T03:13:36;10.35;;;5.72;;
12480;SDS011;6305;48.398;11.762;2023-05-29T03:16:06;8.45;;;5.80;;
12480;SDS011;6305;48.398;11.762;2023-05-29T03:18:34;10.70;;;6.00;;
12480;SDS011;6305;48.398;11.762;2023-05-29T03:21:01;11.90;;;6.30;;
12480;SDS011;6305;48.398;11.762;2023-05-29T03:23:32;9.70;;;5.85;;
12480;SDS011;6305;48.398;11.762;2023-05-29T03:25:58;11.70;;;6.40;;
12480;SDS011;6305;48.398;11.762;2023-05-29T03:28:28;9.73;;;6.07;;
12480;SDS011;6305;48.398;11.762;2023-05-29T03:30:57;8.45;;;5.55;;
12480;SDS011;6305;48.398;11.762;2023-05-29T03:33:24;12.30;;;6.25;;
12480;SDS011;6305;48.398;11.762;2023-05-29T03:36:04;11.15;;;5.97;;
12480;SDS011;6305;48.398;11.762;2023-05-29T03:38:33;9.65;;;6.00;;
12480;SDS011;6305;48.398;11.762;2023-05-29T03:40:59;9.45;;;6.28;;
12480;SDS011;6305;48.398;11.762;2023-05-29T03:43:27;9.27;;;5.72;;
12480;SDS011;6305;48.398;11.762;2023-05-29T03:45:55;9.57;;;5.60;;
12480;SDS011;6305;48.398;11.762;2023-05-29T03:48:24;10.05;;;6.00;;
12480;SDS011;6305;48.398;11.762;2023-05-29T03:50:51;10.77;;;6.18;;
12480;SDS011;6305;48.398;11.762;2023-05-29T03:53:24;10.38;;;5.60;;
12480;SDS011;6305;48.398;11.762;2023-05-29T03:55:52;9.60;;;5.82;;
12480;SDS011;6305;48.398;11.762;2023-05-29T03:58:19;13.93;;;6.40;;
12480;SDS011;6305;48.398;11.762;2023-05-29T04:00:48;10.85;;;5.65;;
12480;SDS011;6305;48.398;11.762;2023-05-29T04:03:18;11.15;;;5.78;;
12480;SDS011;6305;48.398;11.762;2023-05-29T04:05:45;10.90;;;6.20;;
12480;SDS011;6305;48.398;11.762;2023-05-29T04:08:12;7.72;;;5.30;;
12480;SDS011;6305;48.398;11.762;2023-05-29T04:10:39;9.65;;;6.13;;
12480;SDS011;6305;48.398;11.762;2023-05-29T04:13:06;10.02;;;5.75;;
12480;SDS011;6305;48.398;11.762;2023-05-29T04:15:33;12.10;;;6.20;;
12480;SDS011;6305;48.398;11.762;2023-05-29T04:18:02;12.93;;;5.85;;
12480;SDS011;6305;48.398;11.762;2023-05-29T04:20:29;9.55;;;5.88;;
12480;SDS011;6305;48.398;11.762;2023-05-29T04:22:56;7.80;;;5.20;;
12480;SDS011;6305;48.398;11.762;2023-05-29T04:25:23;8.75;;;5.32;;
12480;SDS011;6305;48.398;11.762;2023-05-29T04:27:50;10.43;;;5.55;;
12480;SDS011;6305;48.398;11.762;2023-05-29T04:30:19;9.15;;;5.13;;
12480;SDS011;6305;48.398;11.762;2023-05-29T04:32:47;8.27;;;5.03;;
12480;SDS011;6305;48.398;11.762;2023-05-29T04:35:16;10.20;;;5.20;;
12480;SDS011;6305;48.398;11.762;2023-05-29T04:37:51;8.50;;;5.65;;
12480;SDS011;6305;48.398;11.762;2023-05-29T04:40:18;10.27;;;5.05;;
12480;SDS011;6305;48.398;11.762;2023-05-29T04:42:46;8.73;;;5.43;;
12480;SDS011;6305;48.398;11.762;2023-05-29T04:45:14;6.95;;;4.63;;
12480;SDS011;6305;48.398;11.762;2023-05-29T04:47:41;9.60;;;5.43;;
12480;SDS011;6305;48.398;11.762;2023-05-29T04:50:10;8.63;;;4.88;;
12480;SDS011;6305;48.398;11.762;2023-05-29T04:52:40;6.78;;;4.75;;
12480;SDS011;6305;48.398;11.762;2023-05-29T04:55:09;7.82;;;5.10;;
12480;SDS011;6305;48.398;11.762;2023-05-29T04:57:37;7.63;;;4.93;;
12480;SDS011;6305;48.398;11.762;2023-05-29T05:00:06;7.35;;;4.55;;
12480;SDS011;6305;48.398;11.762;2023-05-29T05:02:37;6.80;;;4.55;;
12480;SDS011;6305;48.398;11.762;2023-05-29T05:05:04;7.38;;;5.03;;
12480;SDS011;6305;48.398;11.762;2023-05-29T05:07:32;7.75;;;5.22;;
12480;SDS011;6305;48.398;11.762;2023-05-29T05:10:01;8.75;;;4.75;;
12480;SDS011;6305;48.398;11.762;2023-05-29T05:12:28;7.60;;;4.15;;
12480;SDS011;6305;48.398;11.762;2023-05-29T05:14:55;8.18;;;4.70;;
12480;SDS011;6305;48.398;11.762;2023-05-29T05:17:23;8.18;;;4.68;;
12480;SDS011;6305;48.398;11.762;2023-05-29T05:19:50;5.97;;;3.97;;
12480;SDS011;6305;48.398;11.762;2023-05-29T05:22:18;9.38;;;4.40;;
12480;SDS011;6305;48.398;11.762;2023-05-29T05:24:48;6.90;;;4.30;;
12480;SDS011;6305;48.398;11.762;2023-05-29T05:27:17;6.20;;;4.20;;
12480;SDS011;6305;48.398;11.762;2023-05-29T05:29:44;6.88;;;4.47;;
12480;SDS011;6305;48.398;11.762;2023-05-29T05:32:10;6.65;;;3.92;;
12480;SDS011;6305;48.398;11.762;2023-05-29T05:34:38;6.90;;;4.00;;
12480;SDS011;6305;48.398;11.762;2023-05-29T05:37:06;6.88;;;4.65;;
12480;SDS011;6305;48.398;11.762;2023-05-29T05:39:33;5.63;;;3.90;;
12480;SDS011;6305;48.398;11.762;2023-05-29T05:42:00;6.78;;;3.90;;
12480;SDS011;6305;48.398;11.762;2023-05-29T05:44:46;5.15;;;4.10;;
12480;SDS011;6305;48.398;11.762;2023-05-29T05:47:13;6.95;;;4.07;;
12480;SDS011;6305;48.398;11.762;2023-05-29T05:49:41;5.28;;;4.25;;
12480;SDS011;6305;48.398;11.762;2023-05-29T05:52:09;7.25;;;3.95;;
12480;SDS011;6305;48.398;11.762;2023-05-29T05:54:36;5.53;;;3.80;;
12480;SDS011;6305;48.398;11.762;2023-05-29T05:57:03;6.00;;;3.58;;
12480;SDS011;6305;48.398;11.762;2023-05-29T05:59:32;7.15;;;4.25;;
12480;SDS011;6305;48.398;11.762;2023-05-29T06:02:03;5.38;;;4.00;;
12480;SDS011;6305;48.398;11.762;2023-05-29T06:04:30;6.03;;;3.97;;
12480;SDS011;6305;48.398;11.762;2023-05-29T06:06:57;6.22;;;3.67;;
12480;SDS011;6305;48.398;11.762;2023-05-29T06:09:25;12.68;;;3.85;;
12480;SDS011;6305;48.398;11.762;2023-05-29T06:11:54;5.93;;;3.80;;
12480;SDS011;6305;48.398;11.762;2023-05-29T06:14:23;4.90;;;3.92;;
12480;SDS011;6305;48.398;11.762;2023-05-29T06:16:50;6.20;;;3.92;;
12480;SDS011;6305;48.398;11.762;2023-05-29T06:19:18;6.97;;;4.30;;
12480;SDS011;6305;48.398;11.762;2023-05-29T06:21:53;5.50;;;3.78;;
12480;SDS011;6305;48.398;11.762;2023-05-29T06:24:20;6.78;;;4.43;;
12480;SDS011;6305;48.398;11.762;2023-05-29T06:26:47;6.13;;;3.80;;
12480;SDS011;6305;48.398;11.762;2023-05-29T06:29:15;5.78;;;4.15;;
12480;SDS011;6305;48.398;11.762;2023-05-29T06:31:43;5.70;;;4.13;;
12480;SDS011;6305;48.398;11.762;2023-05-29T06:34:10;5.20;;;4.20;;
12480;SDS011;6305;48.398;11.762;2023-05-29T06:36:38;5.03;;;4.07;;
12480;SDS011;6305;48.398;11.762;2023-05-29T06:39:07;5.35;;;4.10;;
12480;SDS011;6305;48.398;11.762;2023-05-29T06:41:34;5.95;;;4.03;;
12480;SDS011;6305;48.398;11.762;2023-05-29T06:44:01;5.93;;;4.10;;
12480;SDS011;6305;48.398;11.762;2023-05-29T06:46:28;6.20;;;3.75;;
12480;SDS011;6305;48.398;11.762;2023-05-29T06:48:55;4.78;;;3.63;;
12480;SDS011;6305;48.398;11.762;2023-05-29T06:51:23;4.65;;;3.50;;
12480;SDS011;6305;48.398;11.762;2023-05-29T06:53:57;6.63;;;3.80;;
12480;SDS011;6305;48.398;11.762;2023-05-29T06:56:27;5.05;;;3.78;;
12480;SDS011;6305;48.398;11.762;2023-05-29T06:58:55;5.38;;;4.18;;
12480;SDS011;6305;48.398;11.762;2023-05-29T07:01:22;5.10;;;3.67;;
12480;SDS011;6305;48.398;11.762;2023-05-29T07:03:57;6.40;;;4.13;;
12480;SDS011;6305;48.398;11.762;2023-05-29T07:06:24;6.35;;;4.05;;
12480;SDS011;6305;48.398;11.762;2023-05-29T07:08:51;5.63;;;4.13;;
12480;SDS011;6305;48.398;11.762;2023-05-29T07:11:20;6.97;;;3.97;;
12480;SDS011;6305;48.398;11.762;2023-05-29T07:13:47;5.18;;;3.90;;
12480;SDS011;6305;48.398;11.762;2023-05-29T07:16:14;4.68;;;3.78;;
12480;SDS011;6305;48.398;11.762;2023-05-29T07:18:43;5.75;;;4.13;;
12480;SDS011;6305;48.398;11.762;2023-05-29T07:21:10;5.65;;;3.95;;
12480;SDS011;6305;48.398;11.762;2023-05-29T07:23:39;5.07;;;3.83;;
12480;SDS011;6305;48.398;11.762;2023-05-29T07:26:06;5.60;;;3.83;;
12480;SDS011;6305;48.398;11.762;2023-05-29T07:28:34;4.18;;;3.78;;
12480;SDS011;6305;48.398;11.762;2023-05-29T07:31:02;4.40;;;3.60;;
12480;SDS011;6305;48.398;11.762;2023-05-29T07:33:29;5.85;;;3.50;;
12480;SDS011;6305;48.398;11.762;2023-05-29T07:35:56;3.85;;;3.40;;
12480;SDS011;6305;48.398;11.762;2023-05-29T07:38:24;5.45;;;3.72;;
12480;SDS011;6305;48.398;11.762;2023-05-29T07:40:51;6.43;;;4.05;;
12480;SDS011;6305;48.398;11.762;2023-05-29T07:43:29;5.35;;;3.72;;
12480;SDS011;6305;48.398;11.762;2023-05-29T07:46:00;4.45;;;3.78;;
12480;SDS011;6305;48.398;11.762;2023-05-29T07:48:28;5.55;;;3.70;;
12480;SDS011;6305;48.398;11.762;2023-05-29T07:50:56;6.22;;;3.72;;
12480;SDS011;6305;48.398;11.762;2023-05-29T07:53:26;6.22;;;3.95;;
12480;SDS011;6305;48.398;11.762;2023-05-29T07:55:53;7.35;;;4.28;;
12480;SDS011;6305;48.398;11.762;2023-05-29T07:58:20;5.55;;;3.78;;
12480;SDS011;6305;48.398;11.762;2023-05-29T08:00:48;5.65;;;4.10;;
12480;SDS011;6305;48.398;11.762;2023-05-29T08:03:17;7.68;;;4.35;;
12480;SDS011;6305;48.398;11.762;2023-05-29T08:06:03;4.85;;;3.80;;
12480;SDS011;6305;48.398;11.762;2023-05-29T08:08:31;4.43;;;3.78;;
12480;SDS011;6305;48.398;11.762;2023-05-29T08:10:58;6.05;;;3.72;;
12480;SDS011;6305;48.398;11.762;2023-05-29T08:13:25;5.13;;;3.47;;
12480;SDS011;6305;48.398;11.762;2023-05-29T08:15:53;5.07;;;3.47;;
12480;SDS011;6305;48.398;11.762;2023-05-29T08:18:25;6.93;;;4.00;;
12480;SDS011;6305;48.398;11.762;2023-05-29T08:20:52;4.55;;;3.78;;
12480;SDS011;6305;48.398;11.762;2023-05-29T08:23:19;6.35;;;3.75;;
12480;SDS011;6305;48.398;11.762;2023-05-29T08:25:46;5.20;;;3.78;;
12480;SDS011;6305;48.398;11.762;2023-05-29T08:28:14;4.85;;;3.35;;
12480;SDS011;6305;48.398;11.762;2023-05-29T08:30:41;5.43;;;3.75;;
12480;SDS011;6305;48.398;11.762;2023-05-29T08:33:08;5.72;;;4.60;;
12480;SDS011;6305;48.398;11.762;2023-05-29T08:35:36;5.40;;;4.20;;
12480;SDS011;6305;48.398;11.762;2023-05-29T08:38:03;7.32;;;4.35;;
12480;SDS011;6305;48.398;11.762;2023-05-29T08:40:31;4.28;;;3.60;;
12480;SDS011;6305;48.398;11.762;2023-05-29T08:42:59;5.75;;;4.07;;
12480;SDS011;6305;48.398;11.762;2023-05-29T08:45:31;5.47;;;3.97;;
12480;SDS011;6305;48.398;11.762;2023-05-29T08:48:00;4.45;;;3.70;;
12480;SDS011;6305;48.398;11.762;2023-05-29T08:50:28;7.40;;;4.13;;
12480;SDS011;6305;48.398;11.762;2023-05-29T08:52:57;7.22;;;4.30;;
12480;SDS011;6305;48.398;11.762;2023-05-29T08:55:24;5.35;;;3.90;;
12480;SDS011;6305;48.398;11.762;2023-05-29T08:57:51;4.07;;;3.67;;
12480;SDS011;6305;48.398;11.762;2023-05-29T09:00:18;5.50;;;4.13;;
12480;SDS011;6305;48.398;11.762;2023-05-29T09:02:47;5.90;;;4.20;;
12480;SDS011;6305;48.398;11.762;2023-05-29T09:05:14;5.72;;;3.75;;
12480;SDS011;6305;48.398;11.762;2023-05-29T09:07:42;5.15;;;3.88;;
12480;SDS011;6305;48.398;11.762;2023-05-29T09:10:10;6.10;;;4.13;;
12480;SDS011;6305;48.398;11.762;2023-05-29T09:12:38;4.57;;;3.80;;
12480;SDS011;6305;48.398;11.762;2023-05-29T09:15:07;4.85;;;3.78;;
12480;SDS011;6305;48.398;11.762;2023-05-29T09:17:44;6.63;;;4.10;;
12480;SDS011;6305;48.398;11.762;2023-05-29T09:20:15;5.90;;;4.47;;
12480;SDS011;6305;48.398;11.762;2023-05-29T09:22:46;4.63;;;3.80;;
12480;SDS011;6305;48.398;11.762;2023-05-29T09:25:21;5.10;;;4.32;;
12480;SDS011;6305;48.398;11.762;2023-05-29T09:27:50;5.63;;;3.90;;
12480;SDS011;6305;48.398;11.762;2023-05-29T09:30:30;6.07;;;4.03;;
12480;SDS011;6305;48.398;11.762;2023-05-29T09:32:58;5.45;;;4.00;;
12480;SDS011;6305;48.398;11.762;2023-05-29T09:35:27;5.45;;;3.47;;
12480;SDS011;6305;48.398;11.762;2023-05-29T09:37:59;5.15;;;4.18;;
12480;SDS011;6305;48.398;11.762;2023-05-29T09:40:28;5.80;;;3.83;;
12480;SDS011;6305;48.398;11.762;2023-05-29T09:43:00;4.93;;;4.13;;
12480;SDS011;6305;48.398;11.762;2023-05-29T09:45:30;7.80;;;4.60;;
12480;SDS011;6305;48.398;11.762;2023-05-29T09:47:57;6.32;;;4.30;;
12480;SDS011;6305;48.398;11.762;2023-05-29T09:50:25;5.20;;;4.15;;
12480;SDS011;6305;48.398;11.762;2023-05-29T09:52:53;5.50;;;3.67;;
12480;SDS011;6305;48.398;11.762;2023-05-29T09:55:23;4.88;;;3.92;;
12480;SDS011;6305;48.398;11.762;2023-05-29T09:57:54;4.88;;;4.30;;
12480;SDS011;6305;48.398;11.762;2023-05-29T10:00:21;5.38;;;4.18;;
12480;SDS011;6305;48.398;11.762;2023-05-29T10:02:48;5.18;;;3.88;;
12480;SDS011;6305;48.398;11.762;2023-05-29T10:05:16;4.65;;;3.85;;
12480;SDS011;6305;48.398;11.762;2023-05-29T10:07:43;7.75;;;4.28;;
12480;SDS011;6305;48.398;11.762;2023-05-29T10:10:13;5.18;;;3.78;;
12480;SDS011;6305;48.398;11.762;2023-05-29T10:12:43;4.80;;;3.92;;
12480;SDS011;6305;48.398;11.762;2023-05-29T10:15:15;5.07;;;3.58;;
12480;SDS011;6305;48.398;11.762;2023-05-29T10:17:49;4.45;;;3.78;;
12480;SDS011;6305;48.398;11.762;2023-05-29T10:20:17;5.03;;;3.40;;
12480;SDS011;6305;48.398;11.762;2023-05-29T10:22:49;5.10;;;3.97;;
12480;SDS011;6305;48.398;11.762;2023-05-29T10:25:18;5.85;;;4.13;;
12480;SDS011;6305;48.398;11.762;2023-05-29T10:27:46;5.78;;;4.20;;
12480;SDS011;6305;48.398;11.762;2023-05-29T10:30:18;4.85;;;3.92;;
12480;SDS011;6305;48.398;11.762;2023-05-29T10:32:55;6.35;;;3.88;;
12480;SDS011;6305;48.398;11.762;2023-05-29T10:35:37;6.82;;;4.25;;
12480;SDS011;6305;48.398;11.762;2023-05-29T10:38:10;3.78;;;3.40;;
12480;SDS011;6305;48.398;11.762;2023-05-29T10:40:38;5.35;;;3.80;;
12480;SDS011;6305;48.398;11.762;2023-05-29T10:43:05;5.18;;;3.85;;
12480;SDS011;6305;48.398;11.762;2023-05-29T10:51:28;4.70;;;3.70;;
12480;SDS011;6305;48.398;11.762;2023-05-29T10:53:56;5.05;;;3.75;;
12480;SDS011;6305;48.398;11.762;2023-05-29T10:56:27;5.88;;;3.60;;
12480;SDS011;6305;48.398;11.762;2023-05-29T10:58:57;5.60;;;3.90;;
12480;SDS011;6305;48.398;11.762;2023-05-29T11:01:27;4.53;;;3.85;;
12480;SDS011;6305;48.398;11.762;2023-05-29T11:06:57;7.05;;;4.18;;
12480;SDS011;6305;48.398;11.762;2023-05-29T11:09:25;4.18;;;3.72;;
12480;SDS011;6305;48.398;11.762;2023-05-29T11:12:16;4.90;;;3.67;;
12480;SDS011;6305;48.398;11.762;2023-05-29T11:15:01;4.57;;;3.53;;
12480;SDS011;6305;48.398;11.762;2023-05-29T11:17:42;4.30;;;3.58;;
12480;SDS011;6305;48.398;11.762;2023-05-29T11:20:16;6.60;;;3.90;;
12480;SDS011;6305;48.398;11.762;2023-05-29T11:22:59;5.07;;;3.90;;
12480;SDS011;6305;48.398;11.762;2023-05-29T11:25:28;4.95;;;3.58;;
12480;SDS011;6305;48.398;11.762;2023-05-29T11:27:58;4.82;;;3.78;;
12480;SDS011;6305;48.398;11.762;2023-05-29T11:30:25;4.57;;;3.80;;
12480;SDS011;6305;48.398;11.762;2023-05-29T11:32:54;4.22;;;3.83;;
12480;SDS011;6305;48.398;11.762;2023-05-29T11:35:26;5.32;;;3.80;;
12480;SDS011;6305;48.398;11.762;2023-05-29T11:37:56;4.05;;;3.65;;
12480;SDS011;6305;48.398;11.762;2023-05-29T11:40:23;5.53;;;3.95;;
12480;SDS011;6305;48.398;11.762;2023-05-29T11:42:50;6.07;;;3.95;;
12480;SDS011;6305;48.398;11.762;2023-05-29T11:45:18;4.78;;;3.70;;
12480;SDS011;6305;48.398;11.762;2023-05-29T11:47:50;4.63;;;3.80;;
12480;SDS011;6305;48.398;11.762;2023-05-29T11:50:23;4.13;;;3.20;;
12480;SDS011;6305;48.398;11.762;2023-05-29T11:52:51;4.28;;;3.55;;
12480;SDS011;6305;48.398;11.762;2023-05-29T11:55:18;4.57;;;3.85;;
12480;SDS011;6305;48.398;11.762;2023-05-29T11:57:47;4.97;;;3.58;;
12480;SDS011;6305;48.398;11.762;2023-05-29T12:00:14;3.80;;;3.40;;
12480;SDS011;6305;48.398;11.762;2023-05-29T12:02:44;3.90;;;3.50;;
12480;SDS011;6305;48.398;11.762;2023-05-29T12:05:15;5.10;;;3.80;;
12480;SDS011;6305;48.398;11.762;2023-05-29T12:07:46;5.03;;;4.03;;
12480;SDS011;6305;48.398;11.762;2023-05-29T12:10:15;5.75;;;3.58;;
12480;SDS011;6305;48.398;11.762;2023-05-29T12:12:46;6.13;;;3.85;;
12480;SDS011;6305;48.398;11.762;2023-05-29T12:15:14;7.00;;;3.60;;
12480;SDS011;6305;48.398;11.762;2023-05-29T12:17:42;4.00;;;3.53;;
12480;SDS011;6305;48.398;11.762;2023-05-29T12:20:11;4.28;;;3.88;;
12480;SDS011;6305;48.398;11.762;2023-05-29T12:22:40;6.47;;;3.70;;
12480;SDS011;6305;48.398;11.762;2023-05-29T12:25:09;3.60;;;3.30;;
12480;SDS011;6305;48.398;11.762;2023-05-29T12:27:37;4.20;;;3.72;;
12480;SDS011;6305;48.398;11.762;2023-05-29T12:30:08;6.72;;;3.90;;
12480;SDS011;6305;48.398;11.762;2023-05-29T12:32:37;5.32;;;3.90;;
12480;SDS011;6305;48.398;11.762;2023-05-29T12:35:11;4.85;;;3.28;;
12480;SDS011;6305;48.398;11.762;2023-05-29T12:37:47;4.75;;;3.85;;
12480;SDS011;6305;48.398;11.762;2023-05-29T12:40:16;5.78;;;3.95;;
12480;SDS011;6305;48.398;11.762;2023-05-29T12:42:45;8.93;;;3.58;;
12480;SDS011;6305;48.398;11.762;2023-05-29T12:45:13;5.28;;;3.70;;
12480;SDS011;6305;48.398;11.762;2023-05-29T12:47:50;5.43;;;3.80;;
12480;SDS011;6305;48.398;11.762;2023-05-29T12:50:19;5.30;;;3.55;;
12480;SDS011;6305;48.398;11.762;2023-05-29T12:52:53;5.15;;;3.70;;
12480;SDS011;6305;48.398;11.762;2023-05-29T12:55:21;4.70;;;3.40;;
12480;SDS011;6305;48.398;11.762;2023-05-29T12:57:48;5.07;;;3.50;;
12480;SDS011;6305;48.398;11.762;2023-05-29T13:00:16;4.35;;;3.60;;
12480;SDS011;6305;48.398;11.762;2023-05-29T13:02:44;3.95;;;3.50;;
12480;SDS011;6305;48.398;11.762;2023-05-29T13:05:11;4.65;;;3.63;;
12480;SDS011;6305;48.398;11.762;2023-05-29T13:07:39;4.30;;;3.40;;
12480;SDS011;6305;48.398;11.762;2023-05-29T13:10:08;7.07;;;3.75;;
12480;SDS011;6305;48.398;11.762;2023-05-29T13:12:35;4.60;;;3.15;;
12480;SDS011;6305;48.398;11.762;2023-05-29T13:15:02;4.30;;;3.15;;
12480;SDS011;6305;48.398;11.762;2023-05-29T13:17:29;4.35;;;3.30;;
12480;SDS011;6305;48.398;11.762;2023-05-29T13:19:56;4.55;;;3.47;;
12480;SDS011;6305;48.398;11.762;2023-05-29T13:22:23;5.45;;;3.33;;
12480;SDS011;6305;48.398;11.762;2023-05-29T13:24:55;4.43;;;3.50;;
12480;SDS011;6305;48.398;11.762;2023-05-29T13:27:25;5.43;;;3.90;;
12480;SDS011;6305;48.398;11.762;2023-05-29T13:29:52;4.07;;;3.35;;
12480;SDS011;6305;48.398;11.762;2023-05-29T13:32:19;5.15;;;3.15;;
12480;SDS011;6305;48.398;11.762;2023-05-29T13:34:46;5.20;;;3.05;;
12480;SDS011;6305;48.398;11.762;2023-05-29T13:37:13;6.18;;;3.40;;
12480;SDS011;6305;48.398;11.762;2023-05-29T13:39:40;6.63;;;3.50;;
12480;SDS011;6305;48.398;11.762;2023-05-29T13:42:07;4.88;;;3.38;;
12480;SDS011;6305;48.398;11.762;2023-05-29T13:44:36;4.55;;;3.40;;
12480;SDS011;6305;48.398;11.762;2023-05-29T13:47:04;5.88;;;3.40;;
12480;SDS011;6305;48.398;11.762;2023-05-29T13:49:32;3.60;;;3.22;;
12480;SDS011;6305;48.398;11.762;2023-05-29T13:51:59;4.72;;;3.08;;
12480;SDS011;6305;48.398;11.762;2023-05-29T13:54:26;4.75;;;3.30;;
12480;SDS011;6305;48.398;11.762;2023-05-29T13:56:55;4.65;;;2.85;;
12480;SDS011;6305;48.398;11.762;2023-05-29T13:59:23;4.93;;;4.03;;
12480;SDS011;6305;48.398;11.762;2023-05-29T14:01:51;3.85;;;3.22;;
12480;SDS011;6305;48.398;11.762;2023-05-29T14:04:18;5.20;;;3.45;;
12480;SDS011;6305;48.398;11.762;2023-05-29T14:06:45;3.72;;;2.92;;
12480;SDS011;6305;48.398;11.762;2023-05-29T14:09:12;3.28;;;2.90;;
12480;SDS011;6305;48.398;11.762;2023-05-29T14:11:39;4.15;;;3.35;;
12480;SDS011;6305;48.398;11.762;2023-05-29T14:14:06;3.40;;;3.10;;
12480;SDS011;6305;48.398;11.762;2023-05-29T14:16:33;4.07;;;3.10;;
12480;SDS011;6305;48.398;11.762;2023-05-29T14:19:01;3.58;;;3.10;;
12480;SDS011;6305;48.398;11.762;2023-05-29T14:21:28;5.80;;;3.45;;
12480;SDS011;6305;48.398;11.762;2023-05-29T14:23:55;4.05;;;3.45;;
12480;SDS011;6305;48.398;11.762;2023-05-29T14:26:22;3.80;;;3.40;;
12480;SDS011;6305;48.398;11.762;2023-05-29T14:28:49;3.20;;;2.80;;
12480;SDS011;6305;48.398;11.762;2023-05-29T14:31:16;3.30;;;2.90;;
12480;SDS011;6305;48.398;11.762;2023-05-29T14:33:43;5.13;;;3.20;;
12480;SDS011;6305;48.398;11.762;2023-05-29T14:36:11;4.00;;;3.13;;
12480;SDS011;6305;48.398;11.762;2023-05-29T14:38:39;4.18;;;2.80;;
12480;SDS011;6305;48.398;11.762;2023-05-29T14:41:06;3.63;;;2.83;;
12480;SDS011;6305;48.398;11.762;2023-05-29T14:43:33;4.70;;;3.35;;
12480;SDS011;6305;48.398;11.762;2023-05-29T14:46:00;4.43;;;3.25;;
12480;SDS011;6305;48.398;11.762;2023-05-29T14:48:27;3.55;;;2.85;;
12480;SDS011;6305;48.398;11.762;2023-05-29T14:50:54;4.30;;;3.05;;
12480;SDS011;6305;48.398;11.762;2023-05-29T14:53:22;3.95;;;2.95;;
12480;SDS011;6305;48.398;11.762;2023-05-29T14:55:49;4.07;;;3.28;;
12480;SDS011;6305;48.398;11.762;2023-05-29T14:58:16;4.53;;;3.47;;
12480;SDS011;6305;48.398;11.762;2023-05-29T15:00:43;3.47;;;2.83;;
12480;SDS011;6305;48.398;11.762;2023-05-29T15:03:10;3.85;;;3.22;;